Time;durP1;ratioP1;P1;durP2;ratioP2;P2;SDS_P1;SDS_P2;PMS_P1;PMS_P2;Temp;Humidity;BMP_temperature;BMP_pressure;BME280_temperature;BME280_humidity;BME280_pressure;Samples;Min_cycle;Max_cycle;Signal;HPM_P1;HPM_P2
2023/04/12 00:01:00;;;;;;;17.35;4.88;;;6.70;99.90;;;;;;5054052;28;20102;-72
2023/04/12 00:03:25;;;;;;;11.10;5.70;;;6.70;99.90;;;;;;5066291;28;20056;-72
2023/04/12 00:05:54;;;;;;;14.82;5.22;;;6.80;99.90;;;;;;5076321;28;20197;-72
2023/04/12 00:08:25;;;;;;;16.10;5.13;;;6.80;99.90;;;;;;5070686;28;20404;-72
2023/04/12 00:10:51;;;;;;;9.35;5.03;;;6.80;99.90;;;;;;5070107;28;20055;-72
2023/04/12 00:13:18;;;;;;;15.18;5.97;;;6.90;99.90;;;;;;5066201;28;20580;-72
2023/04/12 00:15:44;;;;;;;10.88;5.55;;;6.90;99.90;;;;;;5066524;28;20570;-72
2023/04/12 00:18:10;;;;;;;15.60;5.60;;;6.90;99.90;;;;;;5066433;28;20075;-72
2023/04/12 00:20:37;;;;;;;11.68;5.68;;;6.90;99.90;;;;;;5068976;28;20733;-71
2023/04/12 00:23:02;;;;;;;9.82;5.07;;;6.90;99.90;;;;;;5070096;28;20063;-71
2023/04/12 00:25:28;;;;;;;14.73;6.88;;;6.80;99.90;;;;;;5077706;28;20040;-72
2023/04/12 00:27:53;;;;;;;12.85;5.97;;;6.80;99.90;;;;;;5072821;28;20484;-72
2023/04/12 00:30:19;;;;;;;8.52;4.85;;;6.80;99.90;;;;;;5071744;28;20048;-72
2023/04/12 00:32:45;;;;;;;18.35;5.60;;;6.80;99.90;;;;;;5067950;28;20053;-71
2023/04/12 00:35:11;;;;;;;10.50;6.28;;;6.90;99.90;;;;;;5104275;28;20040;-72
2023/04/12 00:37:37;;;;;;;16.15;6.38;;;6.90;99.90;;;;;;5071218;28;20058;-71
2023/04/12 00:40:05;;;;;;;12.23;5.75;;;6.90;99.90;;;;;;5068622;28;20074;-72
2023/04/12 00:42:31;;;;;;;;;;;6.90;99.90;;;;;;5070530;28;20056;-72
2023/04/12 00:44:57;;;;;;;15.32;6.35;;;6.90;99.90;;;;;;5071230;28;19924;-72
2023/04/12 00:47:23;;;;;;;15.75;6.47;;;6.90;99.90;;;;;;5071566;28;20754;-71
2023/04/12 00:49:49;;;;;;;11.55;5.45;;;7.00;99.90;;;;;;5064986;28;20056;-72
2023/04/12 00:52:16;;;;;;;11.50;6.22;;;7.00;99.90;;;;;;5103487;28;20041;-72
2023/04/12 00:54:43;;;;;;;12.10;4.70;;;7.00;99.90;;;;;;5070119;28;20083;-72
2023/04/12 00:57:09;;;;;;;12.23;6.45;;;7.00;99.90;;;;;;5069715;28;20052;-72
2023/04/12 00:59:35;;;;;;;11.27;6.28;;;7.00;99.90;;;;;;5065504;28;20055;-72
2023/04/12 01:02:00;;;;;;;16.60;6.20;;;7.00;99.90;;;;;;5081809;28;20048;-72
2023/04/12 01:04:27;;;;;;;6.82;5.18;;;7.10;99.90;;;;;;5067864;28;20063;-72
2023/04/12 01:07:09;;;;;;;13.48;5.53;;;7.10;99.90;;;;;;5067139;28;20440;-72
2023/04/12 01:09:52;;;;;;;12.75;5.30;;;7.10;99.90;;;;;;5103353;28;20113;-72
2023/04/12 01:12:39;;;;;;;13.80;5.68;;;7.10;99.90;;;;;;5063303;28;20128;-72
2023/04/12 01:15:06;;;;;;;9.02;5.63;;;7.10;99.90;;;;;;5065422;28;20048;-72
2023/04/12 01:17:37;;;;;;;10.38;5.18;;;7.20;99.90;;;;;;5069483;28;20795;-72
2023/04/12 01:20:12;;;;;;;12.13;5.95;;;7.20;99.90;;;;;;5069845;28;20059;-72
2023/04/12 01:23:21;;;;;;;10.77;5.85;;;7.30;99.90;;;;;;5069251;28;20127;-71
2023/04/12 01:26:06;;;;;;;13.30;5.90;;;7.40;99.90;;;;;;5050686;28;20153;-72
2023/04/12 01:28:33;;;;;;;29.02;6.30;;;7.50;99.90;;;;;;5059854;28;20142;-72
2023/04/12 01:31:02;;;;;;;18.02;6.25;;;7.60;99.90;;;;;;5055356;28;20182;-72
2023/04/12 01:33:30;;;;;;;17.20;5.95;;;7.80;99.90;;;;;;5072290;28;20048;-72
2023/04/12 01:36:08;;;;;;;14.48;6.68;;;7.90;99.90;;;;;;5075192;28;20049;-72
2023/04/12 01:38:34;;;;;;;11.60;5.65;;;8.00;99.90;;;;;;5057982;28;20049;-72
2023/04/12 01:41:00;;;;;;;11.02;5.53;;;8.00;99.90;;;;;;5066495;28;20045;-72
2023/04/12 01:43:26;;;;;;;12.93;6.20;;;8.10;99.90;;;;;;5070600;28;20040;-72
2023/04/12 01:45:51;;;;;;;14.07;6.68;;;8.10;99.90;;;;;;5069961;28;20429;-72
2023/04/12 01:48:17;;;;;;;14.82;6.60;;;8.10;99.90;;;;;;5069226;28;20051;-72
2023/04/12 01:51:05;;;;;;;15.48;6.40;;;8.20;99.90;;;;;;5066662;28;20056;-72
2023/04/12 01:53:49;;;;;;;11.57;5.68;;;8.20;99.90;;;;;;5071193;28;20048;-71
2023/04/12 01:56:17;;;;;;;14.35;6.07;;;8.20;99.90;;;;;;5065357;28;20796;-71
2023/04/12 01:58:45;;;;;;;;;;;8.20;99.90;;;;;;5079823;28;20386;-72
2023/04/12 02:01:14;;;;;;;17.50;7.20;;;8.20;99.90;;;;;;5068865;28;19978;-71
2023/04/12 02:03:44;;;;;;;19.63;6.90;;;8.20;99.90;;;;;;5069871;28;20056;-72
2023/04/12 02:06:10;;;;;;;14.40;6.80;;;8.20;99.90;;;;;;5068053;28;20041;-72
2023/04/12 02:08:36;;;;;;;18.83;7.13;;;8.20;99.90;;;;;;5066766;28;20057;-72
2023/04/12 02:11:09;;;;;;;19.08;5.88;;;8.30;99.90;;;;;;5066165;28;20076;-71
2023/04/12 02:13:35;;;;;;;11.27;6.43;;;8.20;99.90;;;;;;5067920;28;20060;-72
2023/04/12 02:16:01;;;;;;;13.93;6.03;;;8.20;99.90;;;;;;5068501;28;20634;-72
2023/04/12 02:18:27;;;;;;;14.15;5.95;;;8.30;99.90;;;;;;5068699;28;20056;-72
2023/04/12 02:20:53;;;;;;;14.15;5.72;;;8.30;99.90;;;;;;5066947;28;20123;-72
2023/04/12 02:23:19;;;;;;;15.35;7.35;;;8.30;99.90;;;;;;5063264;28;20044;-72
2023/04/12 02:25:45;;;;;;;12.30;5.50;;;8.30;99.90;;;;;;5068646;28;20048;-72
2023/04/12 02:28:12;;;;;;;13.25;6.22;;;8.30;99.90;;;;;;5064716;28;20049;-71
2023/04/12 02:30:40;;;;;;;13.63;4.82;;;8.30;99.90;;;;;;5100854;28;20080;-72
2023/04/12 02:33:08;;;;;;;11.23;5.00;;;8.30;99.90;;;;;;5066647;28;20397;-71
2023/04/12 02:35:35;;;;;;;10.18;5.00;;;8.30;99.90;;;;;;5057219;28;20477;-72
2023/04/12 02:38:02;;;;;;;9.55;5.88;;;8.30;99.90;;;;;;5066975;28;20086;-72
2023/04/12 02:40:29;;;;;;;14.55;4.32;;;8.40;99.90;;;;;;5068504;28;20473;-71
2023/04/12 02:42:55;;;;;;;19.65;6.97;;;8.40;99.90;;;;;;5065856;28;20063;-72
2023/04/12 02:45:21;;;;;;;14.90;4.57;;;8.40;99.90;;;;;;5065537;28;20052;-72
2023/04/12 02:47:46;;;;;;;8.70;4.80;;;8.40;99.90;;;;;;5066735;28;20052;-72
2023/04/12 02:50:12;;;;;;;9.90;4.65;;;8.40;99.90;;;;;;5066428;28;20074;-72
2023/04/12 02:52:37;;;;;;;9.32;4.55;;;8.40;99.90;;;;;;5068461;28;20045;-72
2023/04/12 02:55:03;;;;;;;10.50;5.22;;;8.40;99.90;;;;;;5066298;28;20037;-72
2023/04/12 02:57:29;;;;;;;8.38;4.65;;;8.40;99.90;;;;;;5066697;28;20052;-71
2023/04/12 02:59:55;;;;;;;8.40;4.63;;;8.40;99.90;;;;;;5059583;28;20040;-71
2023/04/12 03:02:21;;;;;;;10.88;4.90;;;8.40;99.90;;;;;;5056047;28;20047;-73
2023/04/12 03:04:49;;;;;;;13.65;4.63;;;8.40;99.90;;;;;;5065777;28;20064;-72
2023/04/12 03:07:20;;;;;;;6.80;3.90;;;8.40;99.90;;;;;;5066106;28;20051;-72
2023/04/12 03:09:49;;;;;;;4.93;3.53;;;8.40;99.90;;;;;;5063337;28;20052;-73
2023/04/12 03:12:15;;;;;;;12.90;4.28;;;8.40;99.90;;;;;;5066461;28;20511;-72
2023/04/12 03:14:41;;;;;;;9.13;4.50;;;8.40;99.90;;;;;;5062458;28;20049;-72
2023/04/12 03:17:07;;;;;;;12.75;3.55;;;8.40;99.90;;;;;;5061853;28;20048;-72
2023/04/12 03:19:35;;;;;;;8.00;3.53;;;8.50;99.90;;;;;;5068543;28;20074;-72
2023/04/12 03:22:03;;;;;;;13.07;4.88;;;8.50;99.90;;;;;;5068727;28;20158;-72
2023/04/12 03:24:28;;;;;;;6.80;4.17;;;8.50;99.90;;;;;;5054663;28;20047;-72
2023/04/12 03:26:56;;;;;;;7.45;3.50;;;8.50;99.90;;;;;;5058515;28;20049;-72
2023/04/12 03:29:22;;;;;;;10.02;4.03;;;8.50;99.90;;;;;;5059028;28;20063;-72
2023/04/12 03:31:48;;;;;;;8.95;3.50;;;8.50;99.90;;;;;;5067881;28;20044;-72
2023/04/12 03:34:13;;;;;;;9.07;4.68;;;8.50;99.90;;;;;;5051003;28;20053;-72
2023/04/12 03:36:40;;;;;;;11.98;5.05;;;8.50;99.90;;;;;;5063419;28;20066;-72
2023/04/12 03:39:06;;;;;;;9.98;4.22;;;8.50;99.90;;;;;;5061008;28;20048;-72
2023/04/12 03:41:32;;;;;;;6.70;4.47;;;8.50;99.90;;;;;;5052115;28;20048;-72
2023/04/12 03:43:58;;;;;;;9.65;4.55;;;8.50;99.90;;;;;;5066238;28;20060;-72
2023/04/12 03:46:23;;;;;;;9.27;4.43;;;8.50;99.90;;;;;;5061695;28;20048;-72
2023/04/12 03:48:50;;;;;;;6.90;3.83;;;8.50;99.90;;;;;;5057353;28;20125;-72
2023/04/12 03:51:16;;;;;;;12.43;4.75;;;8.50;99.90;;;;;;5069021;28;20159;-72
2023/04/12 03:53:42;;;;;;;11.25;4.15;;;8.50;99.90;;;;;;5066317;28;20190;-71
2023/04/12 03:56:08;;;;;;;21.10;5.68;;;8.50;99.90;;;;;;5066145;28;20041;-72
2023/04/12 03:58:34;;;;;;;6.30;4.43;;;8.50;99.90;;;;;;5065995;28;20392;-72
2023/04/12 04:01:05;;;;;;;9.35;4.63;;;8.50;99.90;;;;;;5067292;28;20077;-72
2023/04/12 04:03:34;;;;;;;7.60;5.07;;;8.50;99.90;;;;;;5066871;28;20062;-72
2023/04/12 04:06:01;;;;;;;10.00;4.72;;;8.50;99.90;;;;;;5063585;28;20099;-72
2023/04/12 04:08:28;;;;;;;13.95;5.43;;;8.50;99.90;;;;;;5065428;28;20615;-73
2023/04/12 04:10:55;;;;;;;16.90;5.90;;;8.40;99.90;;;;;;5061961;28;20041;-72
2023/04/12 04:13:21;;;;;;;9.38;4.78;;;8.40;99.90;;;;;;5062991;28;20100;-72
2023/04/12 04:15:51;;;;;;;15.27;5.53;;;8.30;99.90;;;;;;5065986;28;20517;-72
2023/04/12 04:18:16;;;;;;;9.30;5.10;;;8.30;99.90;;;;;;5065048;28;20571;-72
2023/04/12 04:20:43;;;;;;;10.25;5.20;;;8.30;99.90;;;;;;5050779;28;20152;-72
2023/04/12 04:23:09;;;;;;;18.90;5.68;;;8.30;99.90;;;;;;5054454;28;20406;-73
2023/04/12 04:25:38;;;;;;;10.50;5.82;;;8.20;99.90;;;;;;5064587;28;20048;-72
2023/04/12 04:28:06;;;;;;;11.32;5.70;;;8.20;99.90;;;;;;5061406;28;20052;-72
2023/04/12 04:30:37;;;;;;;8.77;5.03;;;8.20;99.90;;;;;;5065085;28;20086;-72
2023/04/12 04:33:04;;;;;;;16.23;6.45;;;8.20;99.90;;;;;;5099333;28;20056;-72
2023/04/12 04:35:30;;;;;;;10.88;5.72;;;8.20;99.90;;;;;;5063986;28;20048;-72
2023/04/12 04:37:56;;;;;;;9.23;5.50;;;8.20;99.90;;;;;;5067581;28;20047;-73
2023/04/12 04:40:25;;;;;;;12.65;5.47;;;8.10;99.90;;;;;;5063428;28;20290;-72
2023/04/12 04:42:53;;;;;;;21.92;6.07;;;8.10;99.90;;;;;;5065211;28;20548;-72
2023/04/12 04:45:25;;;;;;;12.70;6.50;;;8.10;99.90;;;;;;5064963;28;20055;-72
2023/04/12 04:47:54;;;;;;;25.23;6.50;;;8.00;99.90;;;;;;5067426;28;20623;-72
2023/04/12 04:50:21;;;;;;;7.78;5.57;;;8.00;99.90;;;;;;5065135;28;20044;-72
2023/04/12 04:52:51;;;;;;;9.20;5.07;;;8.00;99.90;;;;;;5061530;28;20055;-72
2023/04/12 04:55:17;;;;;;;12.18;5.55;;;8.00;99.90;;;;;;5061709;28;20302;-72
2023/04/12 04:57:43;;;;;;;9.90;5.40;;;8.00;99.90;;;;;;5044207;28;20037;-72
2023/04/12 05:00:12;;;;;;;11.25;5.55;;;8.00;99.90;;;;;;5064620;28;20113;-73
2023/04/12 05:02:41;;;;;;;11.35;4.93;;;7.90;99.90;;;;;;5058886;28;20052;-72
2023/04/12 05:05:08;;;;;;;12.27;5.50;;;7.90;99.90;;;;;;5066266;28;20060;-72
2023/04/12 05:07:33;;;;;;;17.48;5.57;;;7.90;99.90;;;;;;5068642;28;20135;-72
2023/04/12 05:09:59;;;;;;;10.40;5.70;;;7.90;99.90;;;;;;5067536;28;20606;-73
2023/04/12 05:12:25;;;;;;;11.27;5.35;;;7.90;99.90;;;;;;5067037;28;20389;-72
2023/04/12 05:14:50;;;;;;;11.40;5.72;;;7.90;99.90;;;;;;5098444;28;20052;-72
2023/04/12 05:17:16;;;;;;;11.40;5.38;;;7.90;99.90;;;;;;5067409;28;20389;-73
2023/04/12 05:19:44;;;;;;;9.88;5.05;;;7.90;99.90;;;;;;5068104;28;20066;-73
2023/04/12 05:22:10;;;;;;;13.57;6.05;;;7.90;99.90;;;;;;5065490;28;20598;-73
2023/04/12 05:24:36;;;;;;;8.98;5.25;;;7.90;99.90;;;;;;5067799;28;20055;-74
2023/04/12 05:27:02;;;;;;;10.57;5.32;;;7.90;99.90;;;;;;5066868;28;20059;-74
2023/04/12 05:29:28;;;;;;;14.98;4.75;;;7.90;99.90;;;;;;5065492;28;20074;-74
2023/04/12 05:31:54;;;;;;;8.20;4.45;;;7.90;99.90;;;;;;5069909;28;20048;-73
2023/04/12 05:34:20;;;;;;;12.90;5.00;;;7.90;99.90;;;;;;5068603;28;20040;-73
2023/04/12 05:36:45;;;;;;;8.70;5.28;;;7.90;99.90;;;;;;5068024;28;20097;-74
2023/04/12 05:39:11;;;;;;;9.57;4.65;;;7.80;99.90;;;;;;5068594;28;20048;-74
2023/04/12 05:41:36;;;;;;;9.93;5.28;;;7.80;99.90;;;;;;5065178;28;20131;-74
2023/04/12 05:44:02;;;;;;;10.18;5.30;;;7.90;99.90;;;;;;5064690;28;20083;-74
2023/04/12 05:46:28;;;;;;;8.73;4.55;;;7.80;99.90;;;;;;5064076;28;20098;-74
2023/04/12 05:48:55;;;;;;;8.40;4.05;;;7.80;99.90;;;;;;5067304;28;20231;-75
2023/04/12 05:51:20;;;;;;;10.35;5.15;;;7.80;99.90;;;;;;5067968;28;20044;-74
2023/04/12 05:53:47;;;;;;;8.25;4.45;;;7.80;99.90;;;;;;5067729;28;20094;-74
2023/04/12 05:56:13;;;;;;;9.00;5.47;;;7.80;99.90;;;;;;5067575;28;20051;-74
2023/04/12 05:58:38;;;;;;;8.38;5.07;;;7.70;99.90;;;;;;5067127;28;20756;-75
2023/04/12 06:01:04;;;;;;;10.13;5.15;;;7.80;99.90;;;;;;5064877;28;20048;-76
2023/04/12 06:03:30;;;;;;;9.30;4.85;;;7.80;99.90;;;;;;5060221;28;20132;-75
2023/04/12 06:05:56;;;;;;;11.27;5.00;;;7.80;99.90;;;;;;5065882;28;20670;-74
2023/04/12 06:08:22;;;;;;;8.75;5.28;;;7.70;99.90;;;;;;5065770;28;20044;-75
2023/04/12 06:10:48;;;;;;;11.10;5.25;;;7.80;99.90;;;;;;5066827;28;20044;-76
2023/04/12 06:13:13;;;;;;;17.75;6.00;;;7.70;99.90;;;;;;5066595;28;20076;-75
2023/04/12 06:15:39;;;;;;;9.05;5.28;;;7.80;99.90;;;;;;5067943;28;20607;-76
2023/04/12 06:18:06;;;;;;;10.60;5.20;;;7.70;99.90;;;;;;5061610;28;20055;-76
2023/04/12 06:20:32;;;;;;;14.90;5.05;;;7.70;99.90;;;;;;5060556;28;20082;-75
2023/04/12 06:22:58;;;;;;;8.30;5.13;;;7.70;99.90;;;;;;5060211;28;20049;-75
2023/04/12 06:25:23;;;;;;;14.52;5.80;;;7.70;99.90;;;;;;5065394;28;20161;-76
2023/04/12 06:27:49;;;;;;;12.18;5.22;;;7.70;99.90;;;;;;5065262;28;20464;-75
2023/04/12 06:30:15;;;;;;;13.20;6.18;;;7.70;99.90;;;;;;5059990;28;20459;-75
2023/04/12 06:32:41;;;;;;;10.77;5.35;;;7.70;99.90;;;;;;5065639;28;20075;-76
2023/04/12 06:35:07;;;;;;;7.93;4.55;;;7.70;99.90;;;;;;5059227;28;20048;-76
2023/04/12 06:37:33;;;;;;;8.02;5.82;;;7.70;99.90;;;;;;5065567;28;20036;-75
2023/04/12 06:39:58;;;;;;;10.85;5.95;;;7.70;99.90;;;;;;5066666;28;20045;-75
2023/04/12 06:42:24;;;;;;;12.43;8.75;;;7.70;99.90;;;;;;5069617;28;20075;-75
2023/04/12 06:44:50;;;;;;;9.23;6.03;;;7.70;99.90;;;;;;5066680;28;20048;-76
2023/04/12 06:47:16;;;;;;;21.35;6.63;;;7.70;99.90;;;;;;5063516;28;20413;-76
2023/04/12 06:49:42;;;;;;;9.70;5.97;;;7.70;99.90;;;;;;5065746;28;20040;-77
2023/04/12 06:52:07;;;;;;;13.88;7.32;;;7.70;99.90;;;;;;5066569;28;20044;-76
2023/04/12 06:54:37;;;;;;;26.13;15.48;;;7.70;99.90;;;;;;5096650;28;20064;-76
2023/04/12 06:57:07;;;;;;;25.38;13.55;;;7.80;99.90;;;;;;5065984;28;20819;-76
2023/04/12 06:59:33;;;;;;;22.23;15.73;;;7.70;99.90;;;;;;5062004;28;20114;-76
2023/04/12 07:02:00;;;;;;;20.25;11.73;;;7.80;99.90;;;;;;5050145;28;20508;-77
2023/04/12 07:04:26;;;;;;;22.38;12.07;;;7.80;99.90;;;;;;5065363;28;20518;-76
2023/04/12 07:06:51;;;;;;;12.07;7.55;;;7.80;99.90;;;;;;5066470;28;20052;-76
2023/04/12 07:09:17;;;;;;;9.85;6.55;;;7.80;99.90;;;;;;5064099;28;20127;-76
2023/04/12 07:11:46;;;;;;;10.38;6.45;;;7.80;99.90;;;;;;5061821;28;20066;-76
2023/04/12 07:14:11;;;;;;;8.00;5.53;;;7.80;99.90;;;;;;5039493;28;20050;-76
2023/04/12 07:16:39;;;;;;;12.90;6.38;;;7.80;99.90;;;;;;5065481;28;20037;-76
2023/04/12 07:19:05;;;;;;;12.73;8.02;;;7.80;99.90;;;;;;5064479;28;20052;-76
2023/04/12 07:21:31;;;;;;;18.42;8.27;;;7.80;99.90;;;;;;5066345;28;20036;-76
2023/04/12 07:23:56;;;;;;;13.27;7.88;;;7.80;99.90;;;;;;5064841;28;20040;-76
2023/04/12 07:26:23;;;;;;;9.82;7.03;;;7.80;99.90;;;;;;5056662;28;20098;-76
2023/04/12 07:28:49;;;;;;;9.50;6.40;;;7.80;99.90;;;;;;5066631;28;20040;-76
2023/04/12 07:31:14;;;;;;;38.25;23.05;;;7.80;99.90;;;;;;5065353;28;20052;-76
2023/04/12 07:33:40;;;;;;;16.15;11.63;;;7.80;99.90;;;;;;5098894;28;20041;-76
2023/04/12 07:36:06;;;;;;;18.55;8.60;;;7.90;99.90;;;;;;5070957;28;20755;-76
2023/04/12 07:38:32;;;;;;;20.67;9.43;;;7.80;99.90;;;;;;5065954;28;20059;-76
2023/04/12 07:40:58;;;;;;;16.23;8.50;;;7.90;99.90;;;;;;5064350;28;20048;-76
2023/04/12 07:43:23;;;;;;;12.00;8.40;;;7.90;99.90;;;;;;5065781;28;20119;-76
2023/04/12 07:45:49;;;;;;;13.88;9.50;;;7.90;99.90;;;;;;5065017;28;20114;-76
2023/04/12 07:48:15;;;;;;;24.55;13.93;;;7.90;99.90;;;;;;5065901;28;20044;-77
2023/04/12 07:50:41;;;;;;;18.52;10.25;;;7.90;99.90;;;;;;5065272;28;20078;-77
2023/04/12 07:53:20;;;;;;;14.48;8.57;;;7.90;99.90;;;;;;5065887;28;20044;-76
2023/04/12 07:55:46;;;;;;;13.45;9.52;;;7.90;99.90;;;;;;5066095;28;20505;-76
2023/04/12 07:58:12;;;;;;;20.33;12.43;;;7.90;99.90;;;;;;5062869;28;20044;-76
2023/04/12 08:00:38;;;;;;;29.38;18.70;;;7.90;99.90;;;;;;5063245;28;20044;-76
2023/04/12 08:03:03;;;;;;;30.17;18.00;;;7.90;99.90;;;;;;5063242;28;20049;-76
2023/04/12 08:05:29;;;;;;;26.95;16.88;;;7.90;99.90;;;;;;5052741;28;20110;-76
2023/04/12 08:07:55;;;;;;;20.92;15.38;;;7.90;99.90;;;;;;5081329;28;20055;-77
2023/04/12 08:10:21;;;;;;;20.30;15.27;;;7.90;99.90;;;;;;5058631;28;20041;-76
2023/04/12 08:12:46;;;;;;;43.67;27.13;;;7.90;99.90;;;;;;5061175;28;20132;-77
2023/04/12 08:15:12;;;;;;;29.38;20.13;;;7.90;99.90;;;;;;5068700;28;20125;-76
2023/04/12 08:17:38;;;;;;;36.38;23.85;;;7.90;99.90;;;;;;5047171;28;20040;-76
2023/04/12 08:20:04;;;;;;;12.93;8.77;;;8.00;99.90;;;;;;5064769;28;20071;-76
2023/04/12 08:22:30;;;;;;;22.92;14.98;;;7.90;99.90;;;;;;5060771;28;20112;-78
2023/04/12 08:24:56;;;;;;;16.42;12.35;;;8.00;99.90;;;;;;5065071;28;20139;-77
2023/04/12 08:27:22;;;;;;;21.17;13.57;;;8.00;99.90;;;;;;5065514;28;20406;-77
2023/04/12 08:29:47;;;;;;;12.68;10.45;;;8.00;99.90;;;;;;5064439;28;20155;-77
2023/04/12 08:32:13;;;;;;;16.08;8.38;;;8.10;99.90;;;;;;5064898;28;20071;-77
2023/04/12 08:34:39;;;;;;;14.07;11.50;;;8.10;99.90;;;;;;5064083;28;20684;-76
2023/04/12 08:37:04;;;;;;;20.00;13.38;;;8.10;99.90;;;;;;5065069;28;20057;-76
2023/04/12 08:39:31;;;;;;;24.45;11.63;;;8.10;99.90;;;;;;5065035;28;20524;-75
2023/04/12 08:41:59;;;;;;;14.75;8.02;;;8.20;99.90;;;;;;5067407;28;20147;-76
2023/04/12 08:44:45;;;;;;;16.40;12.52;;;8.20;99.90;;;;;;5067959;28;20049;-76
2023/04/12 08:47:11;;;;;;;18.65;12.73;;;8.20;99.90;;;;;;5094963;28;20061;-76
2023/04/12 08:49:37;;;;;;;20.40;15.07;;;8.20;99.90;;;;;;5067879;28;20090;-75
2023/04/12 08:52:05;;;;;;;12.52;10.40;;;8.30;99.90;;;;;;5066102;28;20076;-76
2023/04/12 08:54:34;;;;;;;23.75;16.65;;;8.30;99.90;;;;;;5096037;28;20054;-76
2023/04/12 08:57:03;;;;;;;17.58;12.60;;;8.40;99.90;;;;;;5064801;28;20044;-76
2023/04/12 08:59:30;;;;;;;9.25;8.30;;;8.40;99.90;;;;;;5061373;28;20049;-76
2023/04/12 09:01:57;;;;;;;10.48;8.70;;;8.50;99.90;;;;;;5067140;28;20098;-75
2023/04/12 09:04:23;;;;;;;15.32;11.93;;;8.60;99.90;;;;;;5066527;28;20044;-75
2023/04/12 09:06:49;;;;;;;18.88;14.82;;;8.60;99.90;;;;;;5100761;28;20061;-75
2023/04/12 09:09:15;;;;;;;15.30;10.07;;;8.70;99.90;;;;;;5064040;28;20071;-76
2023/04/12 09:11:41;;;;;;;8.07;7.28;;;8.60;99.90;;;;;;5064290;28;20516;-75
2023/04/12 09:14:37;;;;;;;14.52;10.93;;;8.60;99.90;;;;;;5068425;28;20046;-75
2023/04/12 09:17:03;;;;;;;12.02;9.85;;;8.70;99.90;;;;;;5058668;28;20145;-75
2023/04/12 09:19:35;;;;;;;18.20;13.48;;;8.60;99.90;;;;;;5068608;28;20447;-75
2023/04/12 09:22:01;;;;;;;16.40;13.20;;;8.70;99.90;;;;;;5066947;28;20978;-75
2023/04/12 09:24:28;;;;;;;17.10;11.07;;;8.60;99.90;;;;;;5068229;28;20048;-75
2023/04/12 09:27:04;;;;;;;22.52;14.23;;;8.60;99.90;;;;;;5067448;28;20057;-75
2023/04/12 09:29:32;;;;;;;40.90;19.15;;;8.60;99.90;;;;;;5065770;28;20055;-75
2023/04/12 09:32:02;;;;;;;60.65;38.58;;;8.60;99.90;;;;;;5067956;28;20064;-75
2023/04/12 09:34:33;;;;;;;57.53;40.47;;;8.60;99.90;;;;;;5062548;28;20087;-75
2023/04/12 09:37:10;;;;;;;63.35;41.00;;;8.60;99.90;;;;;;5060352;28;20070;-75
2023/04/12 09:39:36;;;;;;;104.32;63.75;;;8.60;99.90;;;;;;5068309;28;20040;-76
2023/04/12 09:42:07;;;;;;;16.35;13.43;;;8.60;99.90;;;;;;5067286;28;20047;-76
2023/04/12 09:44:33;;;;;;;10.35;8.93;;;8.60;99.90;;;;;;5067498;28;20098;-75
2023/04/12 09:47:01;;;;;;;10.27;8.95;;;8.60;99.90;;;;;;5066773;28;20044;-75
2023/04/12 09:49:37;;;;;;;11.17;9.17;;;8.70;99.90;;;;;;5068331;28;20076;-75
2023/04/12 09:52:09;;;;;;;10.10;9.05;;;8.70;99.90;;;;;;5068153;28;20588;-75
2023/04/12 09:54:47;;;;;;;17.35;15.65;;;8.80;99.90;;;;;;5066660;28;20824;-75
2023/04/12 09:57:20;;;;;;;20.70;17.60;;;8.90;99.90;;;;;;5069562;28;20056;-75
2023/04/12 09:59:49;;;;;;;11.98;10.60;;;9.00;99.90;;;;;;5077118;28;20052;-75
2023/04/12 10:02:21;;;;;;;12.43;11.13;;;9.00;99.90;;;;;;5100308;28;20182;-75
2023/04/12 10:04:48;;;;;;;11.05;10.05;;;9.10;99.90;;;;;;5065798;28;20056;-75
2023/04/12 10:07:14;;;;;;;13.60;11.10;;;9.30;99.90;;;;;;5055349;28;20576;-74
2023/04/12 10:09:40;;;;;;;14.65;9.57;;;9.30;99.90;;;;;;5066919;28;20048;-74
2023/04/12 10:12:07;;;;;;;11.07;9.95;;;9.50;99.90;;;;;;5066859;28;20059;-74
2023/04/12 10:14:33;;;;;;;11.48;10.38;;;9.70;99.90;;;;;;5067315;28;20056;-73
2023/04/12 10:17:01;;;;;;;12.07;9.65;;;9.80;99.90;;;;;;5066844;28;20119;-74
2023/04/12 10:19:28;;;;;;;11.52;10.32;;;9.90;99.90;;;;;;5065032;28;20044;-74
2023/04/12 10:21:55;;;;;;;12.27;10.52;;;10.00;99.90;;;;;;5098053;28;20048;-74
2023/04/12 10:24:26;;;;;;;9.15;8.15;;;10.20;99.90;;;;;;5060668;28;20093;-74
2023/04/12 10:26:59;;;;;;;10.15;7.93;;;10.10;99.90;;;;;;5063607;28;20049;-74
2023/04/12 10:29:29;;;;;;;10.20;8.32;;;10.10;99.90;;;;;;5062466;28;20494;-74
2023/04/12 10:32:19;;;;;;;15.88;9.93;;;10.10;99.90;;;;;;5063636;28;20084;-74
2023/04/12 10:34:55;;;;;;;11.38;10.30;;;10.20;99.90;;;;;;5062944;28;20164;-74
2023/04/12 10:37:43;;;;;;;11.23;8.15;;;10.30;99.90;;;;;;5059619;28;20432;-74
2023/04/12 10:40:16;;;;;;;14.80;8.35;;;10.30;99.90;;;;;;5065838;28;20048;-74
2023/04/12 10:42:41;;;;;;;9.88;7.45;;;10.50;99.90;;;;;;5059586;28;20080;-74
2023/04/12 10:45:22;;;;;;;8.45;7.32;;;10.50;99.90;;;;;;5066308;28;20079;-74
2023/04/12 10:47:48;;;;;;;13.90;7.72;;;10.70;99.90;;;;;;5065704;28;20044;-74
2023/04/12 10:50:23;;;;;;;8.98;7.88;;;10.80;99.90;;;;;;5067160;28;20148;-74
2023/04/12 10:53:20;;;;;;;10.07;8.02;;;10.90;99.90;;;;;;5066912;28;20129;-74
2023/04/12 10:55:47;;;;;;;11.30;8.30;;;11.20;99.90;;;;;;5066713;28;20077;-74
2023/04/12 10:58:52;;;;;;;15.32;8.10;;;11.30;99.90;;;;;;5060503;28;20173;-74
2023/04/12 11:01:17;;;;;;;9.23;8.35;;;11.30;99.90;;;;;;5064147;28;20052;-74
2023/04/12 11:04:08;;;;;;;12.23;8.55;;;11.30;99.90;;;;;;5066105;28;20083;-73
2023/04/12 11:06:52;;;;;;;13.32;9.18;;;11.40;99.90;;;;;;5065658;28;20063;-74
2023/04/12 11:09:35;;;;;;;14.65;9.98;;;11.60;99.90;;;;;;5066591;28;20139;-75
2023/04/12 11:12:07;;;;;;;11.55;8.32;;;11.90;99.90;;;;;;5066473;28;20481;-74
2023/04/12 11:14:47;;;;;;;11.25;8.77;;;12.30;99.90;;;;;;5066535;28;20089;-73
2023/04/12 11:17:16;;;;;;;14.35;7.55;;;12.50;99.90;;;;;;5078053;28;20537;-73
2023/04/12 11:19:51;;;;;;;9.43;8.57;;;12.60;99.90;;;;;;5066107;28;20047;-73
2023/04/12 11:22:18;;;;;;;19.67;9.10;;;12.90;99.90;;;;;;5066580;28;20394;-73
2023/04/12 11:24:50;;;;;;;20.10;8.10;;;13.20;99.90;;;;;;5070372;28;20106;-73
2023/04/12 11:27:17;;;;;;;11.15;7.45;;;13.50;99.90;;;;;;5065842;28;20127;-73
2023/04/12 11:29:45;;;;;;;9.35;6.80;;;13.70;99.90;;;;;;5068438;28;20055;-73
2023/04/12 11:32:15;;;;;;;7.17;5.93;;;13.80;99.90;;;;;;5066536;28;20097;-73
2023/04/12 11:34:44;;;;;;;15.65;6.38;;;13.80;99.90;;;;;;5053354;28;20151;-73
2023/04/12 11:37:10;;;;;;;9.27;6.13;;;13.90;99.90;;;;;;5063476;28;20052;-73
2023/04/12 11:39:39;;;;;;;11.90;6.97;;;13.80;99.90;;;;;;5066840;28;20028;-73
2023/04/12 11:42:16;;;;;;;11.40;7.10;;;13.70;99.90;;;;;;5058528;28;20084;-73
2023/04/12 11:44:44;;;;;;;12.43;6.47;;;13.60;99.90;;;;;;5065227;28;20089;-73
2023/04/12 11:47:21;;;;;;;7.35;5.90;;;13.60;99.90;;;;;;5063710;28;20048;-74
2023/04/12 11:49:57;;;;;;;10.70;6.18;;;13.70;99.90;;;;;;5064850;28;20048;-73
2023/04/12 11:52:29;;;;;;;23.80;6.43;;;13.60;99.90;;;;;;5066500;28;20054;-74
2023/04/12 11:54:57;;;;;;;14.88;5.78;;;13.70;99.90;;;;;;5048682;28;20828;-74
2023/04/12 11:57:23;;;;;;;14.35;5.63;;;13.90;99.90;;;;;;5067862;28;20062;-74
2023/04/12 11:59:49;;;;;;;13.48;5.60;;;13.90;99.90;;;;;;5065467;28;20094;-73
2023/04/12 12:02:16;;;;;;;10.30;5.65;;;13.80;99.90;;;;;;5065358;28;20049;-74
2023/04/12 12:04:45;;;;;;;12.63;5.90;;;13.80;99.90;;;;;;5065642;28;20159;-73
2023/04/12 12:07:12;;;;;;;10.85;6.30;;;13.80;99.90;;;;;;5065946;28;20057;-73
2023/04/12 12:09:40;;;;;;;10.32;5.97;;;13.80;99.90;;;;;;5066741;28;20513;-73
2023/04/12 12:12:07;;;;;;;14.27;4.63;;;14.10;99.90;;;;;;5073063;28;20060;-73
2023/04/12 12:14:35;;;;;;;12.48;5.20;;;14.20;99.90;;;;;;5069179;28;20040;-74
2023/04/12 12:17:01;;;;;;;;;;;14.50;99.90;;;;;;5060695;28;20041;-73
2023/04/12 12:19:35;;;;;;;11.43;5.53;;;14.70;99.90;;;;;;5059546;28;19925;-73
2023/04/12 12:22:27;;;;;;;10.30;5.05;;;14.90;99.90;;;;;;5065097;28;20044;-73
2023/04/12 12:24:58;;;;;;;9.32;5.20;;;15.00;99.90;;;;;;5052392;28;20057;-73
2023/04/12 12:27:37;;;;;;;12.65;4.20;;;14.90;99.90;;;;;;5064871;28;20040;-73
2023/04/12 12:30:06;;;;;;;10.82;4.47;;;14.80;99.90;;;;;;5064695;28;20436;-73
2023/04/12 12:32:34;;;;;;;16.35;5.40;;;14.70;99.90;;;;;;5065391;28;20084;-73
2023/04/12 12:35:00;;;;;;;12.35;5.95;;;14.50;99.90;;;;;;5066838;28;20048;-73
2023/04/12 12:37:27;;;;;;;24.42;5.20;;;14.30;99.90;;;;;;5059213;28;20052;-73
2023/04/12 12:40:12;;;;;;;12.32;5.43;;;14.20;99.90;;;;;;5064744;28;20048;-73
2023/04/12 12:42:45;;;;;;;14.00;4.88;;;14.00;99.90;;;;;;5062785;28;20044;-73
2023/04/12 12:45:12;;;;;;;20.90;6.53;;;14.00;99.90;;;;;;5063010;28;20052;-73
2023/04/12 12:47:51;;;;;;;15.50;5.88;;;13.90;99.90;;;;;;5052432;28;20089;-73
2023/04/12 12:50:22;;;;;;;14.88;4.25;;;13.80;99.90;;;;;;5062686;28;20056;-73
2023/04/12 12:52:48;;;;;;;19.85;5.65;;;13.70;99.90;;;;;;5065603;28;20047;-73